createdAt,value
2019-04-10T00:00:53.305Z,3.00
2019-04-10T00:01:53.294Z,3.00
2019-04-10T00:02:53.597Z,2.89
2019-04-10T00:03:53.273Z,2.85
2019-04-10T00:04:53.640Z,2.86
2019-04-10T00:05:53.261Z,2.90
2019-04-10T00:06:55.374Z,2.77
2019-04-10T00:07:54.239Z,2.74
2019-04-10T00:08:53.218Z,2.68
2019-04-10T00:09:53.233Z,2.56
2019-04-10T00:10:54.259Z,2.62
2019-04-10T00:11:53.489Z,2.56
2019-04-10T00:12:54.121Z,2.54
2019-04-10T00:13:53.302Z,2.54
2019-04-10T00:14:53.153Z,2.62
2019-04-10T00:15:53.166Z,2.54
2019-04-10T00:16:54.253Z,2.56
2019-04-10T00:17:53.534Z,2.56
2019-04-10T00:18:53.991Z,2.64
2019-04-10T00:19:54.002Z,2.61
2019-04-10T00:20:53.211Z,2.69
2019-04-10T00:21:53.590Z,2.62
2019-04-10T00:22:53.066Z,2.67
2019-04-10T00:23:53.060Z,2.64
2019-04-10T00:24:53.045Z,2.67
2019-04-10T00:25:53.095Z,2.71
2019-04-10T00:26:53.028Z,2.65
2019-04-10T00:27:53.031Z,2.67
2019-04-10T00:28:53.889Z,2.50
2019-04-10T00:29:52.995Z,2.50
2019-04-10T00:30:53.593Z,2.36
2019-04-10T00:31:54.152Z,2.50
2019-04-10T00:32:52.952Z,2.43
2019-04-10T00:33:53.527Z,2.39
2019-04-10T00:34:53.935Z,2.39
2019-04-10T00:35:53.906Z,2.44
2019-04-10T00:36:53.336Z,2.35
2019-04-10T00:37:53.411Z,2.44
2019-04-10T00:38:53.891Z,2.39
2019-04-10T00:39:53.065Z,2.42
2019-04-10T00:40:52.872Z,2.42
2019-04-10T00:41:52.991Z,2.42
2019-04-10T00:42:53.753Z,2.50
2019-04-10T00:43:52.833Z,2.47
2019-04-10T00:44:52.840Z,2.54
2019-04-10T00:45:53.597Z,2.54
2019-04-10T00:46:52.846Z,2.49
2019-04-10T00:47:53.162Z,2.44
2019-04-10T00:48:52.777Z,2.50
2019-04-10T00:49:53.658Z,2.42
2019-04-10T00:50:53.002Z,2.32
2019-04-10T00:51:52.750Z,2.32
2019-04-10T00:52:52.750Z,2.33
2019-04-10T00:53:53.800Z,2.31
2019-04-10T00:54:52.722Z,2.31
2019-04-10T00:55:52.702Z,2.26
2019-04-10T00:56:52.833Z,2.29
2019-04-10T00:57:52.692Z,2.22
2019-04-10T00:58:53.229Z,2.24
2019-04-10T00:59:52.669Z,2.20
2019-04-10T01:00:52.684Z,2.28
2019-04-10T01:01:52.669Z,2.14
2019-04-10T01:02:53.333Z,2.29
2019-04-10T01:03:52.617Z,2.20
2019-04-10T01:04:52.982Z,2.20
2019-04-10T01:05:52.604Z,2.10
2019-04-10T01:06:52.587Z,2.14
2019-04-10T01:07:52.573Z,2.10
2019-04-10T01:08:59.300Z,2.13
2019-04-10T01:09:53.438Z,2.04
2019-04-10T01:10:52.628Z,2.10
2019-04-10T01:11:52.537Z,2.15
2019-04-10T01:12:52.520Z,2.15
2019-04-10T01:13:53.604Z,2.17
2019-04-10T01:14:52.501Z,2.15
2019-04-10T01:15:53.117Z,2.15
2019-04-10T01:16:52.605Z,2.00
2019-04-10T01:17:52.830Z,2.04
2019-04-10T01:18:53.271Z,2.02
2019-04-10T01:19:52.446Z,1.95
2019-04-10T01:20:53.528Z,1.97
2019-04-10T01:21:52.787Z,1.95
2019-04-10T01:22:52.412Z,1.91
2019-04-10T01:23:53.254Z,1.88
2019-04-10T01:24:52.393Z,1.89
2019-04-10T01:25:52.383Z,1.81
2019-04-10T01:26:52.401Z,1.77
2019-04-10T01:27:52.362Z,1.81
2019-04-10T01:28:54.047Z,1.88
2019-04-10T01:29:52.335Z,1.78
2019-04-10T01:30:52.813Z,1.88
2019-04-10T01:31:53.141Z,1.78
2019-04-10T01:32:52.391Z,1.81
2019-04-10T01:33:52.722Z,1.89
2019-04-10T01:34:52.296Z,1.84
2019-04-10T01:35:52.273Z,1.81
2019-04-10T01:36:52.400Z,1.78
2019-04-10T01:37:57.837Z,1.87
2019-04-10T01:38:53.781Z,1.84
2019-04-10T01:39:52.837Z,1.88
2019-04-10T01:40:53.131Z,1.73
2019-04-10T01:41:52.318Z,1.80
2019-04-10T01:43:02.458Z,1.80
2019-04-10T01:43:53.200Z,1.77
2019-04-10T01:44:53.113Z,1.68
2019-04-10T01:45:52.164Z,1.74
2019-04-10T01:46:52.916Z,1.73
2019-04-10T01:47:53.205Z,1.68
2019-04-10T01:48:53.257Z,1.71
2019-04-10T01:49:52.130Z,1.67
2019-04-10T01:50:52.878Z,1.66
2019-04-10T01:51:52.104Z,1.73
2019-04-10T01:52:52.088Z,1.73
2019-04-10T01:53:52.365Z,1.68
2019-04-10T01:54:52.066Z,1.66
2019-04-10T01:55:52.054Z,1.63
2019-04-10T01:56:52.186Z,1.73
2019-04-10T01:57:52.624Z,1.74
2019-04-10T01:58:52.021Z,1.78
2019-04-10T01:59:52.135Z,1.77
2019-04-10T02:00:52.147Z,1.73
2019-04-10T02:01:52.591Z,1.71
2019-04-10T02:02:51.978Z,1.68
2019-04-10T02:03:52.037Z,1.67
2019-04-10T02:04:53.717Z,1.67
2019-04-10T02:05:52.618Z,1.68
2019-04-10T02:06:51.933Z,1.63
2019-04-10T02:08:01.219Z,1.59
2019-04-10T02:08:52.947Z,1.55
2019-04-10T02:09:51.912Z,1.66
2019-04-10T02:10:52.235Z,1.62
2019-04-10T02:11:52.356Z,1.62
2019-04-10T02:12:52.686Z,1.55
2019-04-10T02:13:51.881Z,1.48
2019-04-10T02:14:52.294Z,1.50
2019-04-10T02:15:52.420Z,1.49
2019-04-10T02:16:51.827Z,1.55
2019-04-10T02:17:52.868Z,1.56
2019-04-10T02:18:52.035Z,1.50
2019-04-10T02:19:51.795Z,1.60
2019-04-10T02:20:51.790Z,1.59
2019-04-10T02:21:51.901Z,1.55
2019-04-10T02:22:51.978Z,1.58
2019-04-10T02:23:52.416Z,1.60
2019-04-10T02:24:51.753Z,1.62
2019-04-10T02:25:52.748Z,1.59
2019-04-10T02:26:52.011Z,1.63
2019-04-10T02:27:51.709Z,1.66
2019-04-10T02:28:51.702Z,1.70
2019-04-10T02:29:52.320Z,1.58
2019-04-10T02:30:51.928Z,1.52
2019-04-10T02:31:52.789Z,1.53
2019-04-10T02:32:52.854Z,1.60
2019-04-10T02:33:51.868Z,1.49
2019-04-10T02:34:53.145Z,1.45
2019-04-10T02:35:52.618Z,1.45
2019-04-10T02:36:52.896Z,1.38
2019-04-10T02:37:55.398Z,1.40
2019-04-10T02:39:04.629Z,1.49
2019-04-10T02:39:56.292Z,1.48
2019-04-10T02:40:52.997Z,1.45
2019-04-10T02:41:52.316Z,1.42
2019-04-10T02:42:51.547Z,1.40
2019-04-10T02:43:51.579Z,1.35
2019-04-10T02:44:52.171Z,1.40
2019-04-10T02:45:51.523Z,1.45
2019-04-10T02:46:51.968Z,1.45
2019-04-10T02:47:52.857Z,1.38
2019-04-10T02:48:51.972Z,1.37
2019-04-10T02:49:52.189Z,1.28
2019-04-10T02:50:51.468Z,1.23
2019-04-10T02:51:51.982Z,1.26
2019-04-10T02:52:51.436Z,1.30
2019-04-10T02:53:53.089Z,1.20
2019-04-10T02:54:51.436Z,1.28
2019-04-10T02:55:51.658Z,1.41
2019-04-10T02:56:52.664Z,1.31
2019-04-10T02:57:51.860Z,1.32
2019-04-10T02:58:51.679Z,1.23
2019-04-10T02:59:51.369Z,1.28
2019-04-10T03:00:52.564Z,1.28
2019-04-10T03:01:51.972Z,1.23
2019-04-10T03:02:52.044Z,1.31
2019-04-10T03:03:52.549Z,1.38
2019-04-10T03:04:53.180Z,1.35
2019-04-10T03:05:51.302Z,1.42
2019-04-10T03:06:51.641Z,1.42
2019-04-10T03:07:52.623Z,1.37
2019-04-10T03:09:07.254Z,1.40
2019-04-10T03:10:02.223Z,1.30
2019-04-10T03:10:58.966Z,1.31
2019-04-10T03:11:52.232Z,1.34
2019-04-10T03:12:52.609Z,1.34
2019-04-10T03:13:51.347Z,1.35
2019-04-10T03:14:52.186Z,1.37
2019-04-10T03:15:51.856Z,1.34
2019-04-10T03:16:51.476Z,1.41
2019-04-10T03:17:51.177Z,1.38
2019-04-10T03:18:51.162Z,1.42
2019-04-10T03:19:51.925Z,1.40
2019-04-10T03:20:51.151Z,1.45
2019-04-10T03:21:51.427Z,1.42
2019-04-10T03:22:51.420Z,1.50
2019-04-10T03:23:51.107Z,1.41
2019-04-10T03:24:51.094Z,1.50
2019-04-10T03:25:51.085Z,1.56
2019-04-10T03:26:52.147Z,1.58
2019-04-10T03:27:51.103Z,1.55
2019-04-10T03:28:51.486Z,1.52
2019-04-10T03:29:51.934Z,1.53
2019-04-10T03:30:51.026Z,1.52
2019-04-10T03:31:52.908Z,1.67
2019-04-10T03:32:55.833Z,1.59
2019-04-10T03:33:54.110Z,1.68
2019-04-10T03:34:51.263Z,1.66
2019-04-10T03:35:51.433Z,1.63
2019-04-10T03:36:51.765Z,1.66
2019-04-10T03:37:50.951Z,1.71
2019-04-10T03:38:59.578Z,1.76
2019-04-10T03:39:53.137Z,1.71
2019-04-10T03:40:51.447Z,1.68
2019-04-10T03:41:50.909Z,1.77
2019-04-10T03:42:50.896Z,1.78
2019-04-10T03:43:50.910Z,1.78
2019-04-10T03:44:51.401Z,1.77
2019-04-10T03:45:50.880Z,1.84
2019-04-10T03:46:50.994Z,1.78
2019-04-10T03:47:51.500Z,1.81
2019-04-10T03:48:51.524Z,1.78
2019-04-10T03:49:51.757Z,1.81
2019-04-10T03:50:50.807Z,1.91
2019-04-10T03:51:50.805Z,1.85
2019-04-10T03:52:51.772Z,1.91
2019-04-10T03:53:50.895Z,1.94
2019-04-10T03:54:50.783Z,1.91
2019-04-10T03:55:52.036Z,1.92
2019-04-10T03:56:51.007Z,1.89
2019-04-10T03:57:51.875Z,1.95
2019-04-10T03:58:51.634Z,1.91
2019-04-10T03:59:51.791Z,1.88
2019-04-10T04:00:50.728Z,1.91
2019-04-10T04:01:51.379Z,1.92
2019-04-10T04:02:51.615Z,1.97
2019-04-10T04:03:51.117Z,1.99
2019-04-10T04:04:50.675Z,1.94
2019-04-10T04:05:51.048Z,1.95
2019-04-10T04:06:50.648Z,1.95
2019-04-10T04:07:50.721Z,2.04
2019-04-10T04:09:01.732Z,2.10
2019-04-10T04:09:51.646Z,2.00
2019-04-10T04:10:51.259Z,2.00
2019-04-10T04:11:50.616Z,2.04
2019-04-10T04:12:50.975Z,2.07
2019-04-10T04:13:50.556Z,2.07
2019-04-10T04:14:50.739Z,2.04
2019-04-10T04:15:50.678Z,2.07
2019-04-10T04:16:51.229Z,2.02
2019-04-10T04:17:50.670Z,2.10
2019-04-10T04:18:51.234Z,2.07
2019-04-10T04:19:50.531Z,1.95
2019-04-10T04:20:51.019Z,1.91
2019-04-10T04:21:50.497Z,1.92
2019-04-10T04:22:50.470Z,1.94
2019-04-10T04:23:51.097Z,1.92
2019-04-10T04:24:50.435Z,1.94
2019-04-10T04:25:50.488Z,2.08
2019-04-10T04:26:50.806Z,1.99
2019-04-10T04:27:50.416Z,2.10
2019-04-10T04:28:51.540Z,2.02
2019-04-10T04:29:50.385Z,2.15
2019-04-10T04:30:52.334Z,2.10
2019-04-10T04:31:50.706Z,2.18
2019-04-10T04:32:50.531Z,2.15
2019-04-10T04:33:50.335Z,2.24
2019-04-10T04:34:50.366Z,2.06
2019-04-10T04:35:51.055Z,2.24
2019-04-10T04:36:51.408Z,2.20
2019-04-10T04:37:50.594Z,2.18
2019-04-10T04:38:51.405Z,2.18
2019-04-10T04:39:50.268Z,2.17
2019-04-10T04:40:51.306Z,2.14
2019-04-10T04:41:50.252Z,2.22
2019-04-10T04:42:51.358Z,2.14
2019-04-10T04:43:50.291Z,2.15
2019-04-10T04:44:50.222Z,2.18
2019-04-10T04:45:50.718Z,2.14
2019-04-10T04:46:50.614Z,2.17
2019-04-10T04:47:50.406Z,2.20
2019-04-10T04:48:50.207Z,2.20
2019-04-10T04:49:50.305Z,2.18
2019-04-10T04:50:50.145Z,2.17
2019-04-10T04:51:50.589Z,2.14
2019-04-10T04:52:50.135Z,2.20
2019-04-10T04:53:50.499Z,2.26
2019-04-10T04:54:50.110Z,2.24
2019-04-10T04:55:51.290Z,2.24
2019-04-10T04:56:50.488Z,2.15
2019-04-10T04:57:50.252Z,2.18
2019-04-10T04:58:50.064Z,2.31
2019-04-10T04:59:50.476Z,2.28
2019-04-10T05:00:50.797Z,2.38
2019-04-10T05:01:50.030Z,2.49
2019-04-10T05:02:50.018Z,2.54
2019-04-10T05:03:50.540Z,2.60
2019-04-10T05:04:49.991Z,2.56
2019-04-10T05:05:50.143Z,2.60
2019-04-10T05:06:50.160Z,2.68
2019-04-10T05:07:59.259Z,2.68
2019-04-10T05:08:50.949Z,2.74
2019-04-10T05:09:50.429Z,2.77
2019-04-10T05:10:49.947Z,2.79
2019-04-10T05:11:50.967Z,2.79
2019-04-10T05:12:49.908Z,2.87
2019-04-10T05:13:50.911Z,2.80
2019-04-10T05:14:49.881Z,2.93
2019-04-10T05:15:49.883Z,2.93
2019-04-10T05:16:50.047Z,2.87
2019-04-10T05:17:49.851Z,2.92
2019-04-10T05:18:50.155Z,3.00
2019-04-10T05:19:50.345Z,2.98
2019-04-10T05:20:50.852Z,3.08
2019-04-10T05:21:49.906Z,3.07
2019-04-10T05:22:52.069Z,3.10
2019-04-10T05:23:49.789Z,3.10
2019-04-10T05:24:49.787Z,3.03
2019-04-10T05:25:49.885Z,3.10
2019-04-10T05:26:49.762Z,3.08
2019-04-10T05:27:49.742Z,3.19
2019-04-10T05:28:50.742Z,3.34
2019-04-10T05:29:50.569Z,3.32
2019-04-10T05:30:50.591Z,3.41
2019-04-10T05:31:49.709Z,3.42
2019-04-10T05:32:49.693Z,3.51
2019-04-10T05:33:49.680Z,3.50
2019-04-10T05:34:50.403Z,3.47
2019-04-10T05:35:50.761Z,3.41
2019-04-10T05:36:49.648Z,3.59
2019-04-10T05:37:49.916Z,3.55
2019-04-10T05:38:50.977Z,3.58
2019-04-10T05:39:51.946Z,3.58
2019-04-10T05:40:50.627Z,3.70
2019-04-10T05:41:50.381Z,4.13
2019-04-10T05:42:49.572Z,4.60
2019-04-10T05:43:49.577Z,4.96
2019-04-10T05:44:50.173Z,4.82
2019-04-10T05:45:50.596Z,4.82
2019-04-10T05:46:49.533Z,4.66
2019-04-10T05:47:50.640Z,4.82
2019-04-10T05:48:50.487Z,4.52
2019-04-10T05:49:49.501Z,4.32
2019-04-10T05:50:56.659Z,4.19
2019-04-10T05:51:50.478Z,4.08
2019-04-10T05:52:49.694Z,3.98
2019-04-10T05:53:52.228Z,3.87
2019-04-10T05:54:49.462Z,4.24
2019-04-10T05:55:49.450Z,4.82
2019-04-10T05:56:50.414Z,4.63
2019-04-10T05:57:49.413Z,4.55
2019-04-10T05:58:49.397Z,4.34
2019-04-10T05:59:49.405Z,4.19
2019-04-10T06:00:49.898Z,4.06
2019-04-10T06:01:50.500Z,4.05
2019-04-10T06:02:50.305Z,3.91
2019-04-10T06:03:49.348Z,3.88
2019-04-10T06:04:49.655Z,3.94
2019-04-10T06:05:49.319Z,4.06
2019-04-10T06:06:49.521Z,4.06
2019-04-10T06:07:49.571Z,4.06
2019-04-10T06:08:49.294Z,4.02
2019-04-10T06:09:55.925Z,3.87
2019-04-10T06:10:50.266Z,3.76
2019-04-10T06:11:49.253Z,3.70
2019-04-10T06:12:49.266Z,3.84
2019-04-10T06:13:49.246Z,3.74
2019-04-10T06:14:50.409Z,3.86
2019-04-10T06:15:49.211Z,3.84
2019-04-10T06:16:49.205Z,3.84
2019-04-10T06:17:49.187Z,3.83
2019-04-10T06:18:49.349Z,3.92
2019-04-10T06:19:49.169Z,3.94
2019-04-10T06:20:49.416Z,4.10
2019-04-10T06:21:50.308Z,4.12
2019-04-10T06:22:49.131Z,4.14
2019-04-10T06:23:49.850Z,4.13
2019-04-10T06:24:49.114Z,4.26
2019-04-10T06:25:49.871Z,4.45
2019-04-10T06:26:50.105Z,4.52
2019-04-10T06:27:49.083Z,4.58
2019-04-10T06:28:49.066Z,4.77
2019-04-10T06:29:49.054Z,4.77
2019-04-10T06:30:50.071Z,4.66
2019-04-10T06:31:49.362Z,4.58
2019-04-10T06:32:49.028Z,4.75
2019-04-10T06:33:49.010Z,4.66
2019-04-10T06:34:50.108Z,4.75
2019-04-10T06:35:49.039Z,5.05
2019-04-10T06:36:49.430Z,5.25
2019-04-10T06:37:48.975Z,5.75
2019-04-10T06:38:48.970Z,5.48
2019-04-10T06:39:49.112Z,5.32
2019-04-10T06:40:48.938Z,5.28
2019-04-10T06:41:48.945Z,5.28
2019-04-10T06:42:52.239Z,5.18
2019-04-10T06:43:49.663Z,5.20
2019-04-10T06:44:48.894Z,5.28
2019-04-10T06:45:48.877Z,5.41
2019-04-10T06:46:48.867Z,5.73
2019-04-10T06:47:48.869Z,6.01
2019-04-10T06:48:49.817Z,6.01
2019-04-10T06:49:48.833Z,6.51
2019-04-10T06:50:48.844Z,7.15
2019-04-10T06:51:49.390Z,7.02
2019-04-10T06:52:49.294Z,6.22
2019-04-10T06:53:59.928Z,5.91
2019-04-10T06:54:49.777Z,5.62
2019-04-10T06:55:48.945Z,5.50
2019-04-10T06:56:48.877Z,5.54
2019-04-10T06:57:55.840Z,5.50
2019-04-10T06:58:49.920Z,5.50
2019-04-10T06:59:48.728Z,5.64
2019-04-10T07:00:52.970Z,5.76
2019-04-10T07:01:53.333Z,5.94
2019-04-10T07:02:50.565Z,6.01
2019-04-10T07:03:56.579Z,6.02
2019-04-10T07:04:54.292Z,6.22
2019-04-10T07:06:02.456Z,6.04
2019-04-10T07:06:58.091Z,5.86
2019-04-10T07:07:53.780Z,5.73
2019-04-10T07:08:50.910Z,5.82
2019-04-10T07:09:49.577Z,5.98
2019-04-10T07:10:55.364Z,6.01
2019-04-10T07:11:53.486Z,6.24
2019-04-10T07:12:49.577Z,6.26
2019-04-10T07:13:49.120Z,6.28
2019-04-10T07:14:50.794Z,6.39
2019-04-10T07:15:49.653Z,6.85
2019-04-10T07:16:48.616Z,7.73
2019-04-10T07:17:49.246Z,8.23
2019-04-10T07:18:49.434Z,8.12
2019-04-10T07:19:49.307Z,8.13
2019-04-10T07:20:48.967Z,8.06
2019-04-10T07:21:49.155Z,8.41
2019-04-10T07:22:49.674Z,8.37
2019-04-10T07:23:49.028Z,8.15
2019-04-10T07:24:48.486Z,7.66
2019-04-10T07:25:48.489Z,7.29
2019-04-10T07:26:50.531Z,7.11
2019-04-10T07:27:48.415Z,6.81
2019-04-10T07:28:50.085Z,6.99
2019-04-10T07:29:50.782Z,7.03
2019-04-10T07:30:48.399Z,7.48
2019-04-10T07:31:48.803Z,7.54
2019-04-10T07:32:49.185Z,7.70
2019-04-10T07:33:50.393Z,8.15
2019-04-10T07:34:48.723Z,8.09
2019-04-10T07:35:48.320Z,8.34
2019-04-10T07:36:48.321Z,8.71
2019-04-10T07:37:52.702Z,8.33
2019-04-10T07:38:48.916Z,7.70
2019-04-10T07:39:48.904Z,7.17
2019-04-10T07:40:49.129Z,7.28
2019-04-10T07:41:49.265Z,7.31
2019-04-10T07:42:48.655Z,6.96
2019-04-10T07:43:53.584Z,6.77
2019-04-10T07:44:49.223Z,6.63
2019-04-10T07:45:48.216Z,6.52
2019-04-10T07:46:48.823Z,6.57
2019-04-10T07:47:48.345Z,7.28
2019-04-10T07:48:48.187Z,7.51
2019-04-10T07:49:48.368Z,7.58
2019-04-10T07:50:48.558Z,7.76
2019-04-10T07:51:49.139Z,7.85
2019-04-10T07:52:48.151Z,8.00
2019-04-10T07:53:49.153Z,7.69
2019-04-10T07:54:48.247Z,7.63
2019-04-10T07:56:00.376Z,7.31
2019-04-10T07:56:49.407Z,7.13
2019-04-10T07:57:49.985Z,6.95
2019-04-10T07:58:48.294Z,7.03
2019-04-10T07:59:48.053Z,6.92
2019-04-10T08:00:49.507Z,7.07
2019-04-10T08:01:48.025Z,6.96
2019-04-10T08:02:49.057Z,7.05
2019-04-10T08:03:48.019Z,7.24
2019-04-10T08:04:48.034Z,7.28
2019-04-10T08:05:48.213Z,7.33
2019-04-10T08:06:47.993Z,7.23
2019-04-10T08:07:47.960Z,7.21
2019-04-10T08:08:49.145Z,7.39
2019-04-10T08:09:47.942Z,7.58
2019-04-10T08:10:48.793Z,7.73
2019-04-10T08:11:48.884Z,7.67
2019-04-10T08:13:41.734Z,7.53
2019-04-10T08:14:42.040Z,7.28
2019-04-10T08:15:41.654Z,7.33
2019-04-10T08:16:41.643Z,7.24
2019-04-10T08:17:41.636Z,6.95
2019-04-10T08:18:41.624Z,6.95
2019-04-10T08:19:41.626Z,7.18
2019-04-10T08:20:42.498Z,7.56
2019-04-10T08:21:42.350Z,7.72
2019-04-10T08:22:42.689Z,7.67
2019-04-10T08:23:42.381Z,7.75
2019-04-10T08:24:42.618Z,7.67
2019-04-10T08:25:41.568Z,7.47
2019-04-10T08:26:41.543Z,7.47
2019-04-10T08:27:41.801Z,7.60
2019-04-10T08:28:41.516Z,7.85
2019-04-10T08:29:42.766Z,7.97
2019-04-10T08:30:41.970Z,8.33
2019-04-10T08:31:41.489Z,8.45
2019-04-10T08:32:53.290Z,8.34
2019-04-10T08:33:42.465Z,8.10
2019-04-10T08:34:42.137Z,7.95
2019-04-10T08:35:41.942Z,7.98
2019-04-10T08:36:41.581Z,8.12
2019-04-10T08:37:41.463Z,7.66
2019-04-10T08:38:42.116Z,7.47
2019-04-10T08:39:45.568Z,7.63
2019-04-10T08:40:42.377Z,7.69
2019-04-10T08:41:41.638Z,7.76
2019-04-10T08:42:44.593Z,7.70
2019-04-10T08:43:41.688Z,7.58
2019-04-10T08:44:42.394Z,7.79
2019-04-10T08:45:47.177Z,7.90
2019-04-10T08:46:42.341Z,7.87
2019-04-10T08:47:42.164Z,8.01
2019-04-10T08:48:41.327Z,8.15
2019-04-10T08:49:41.283Z,8.46
2019-04-10T08:50:41.929Z,8.81
2019-04-10T08:51:41.619Z,8.87
2019-04-10T08:52:41.289Z,9.03
2019-04-10T08:53:42.392Z,9.18
2019-04-10T08:54:41.229Z,8.99
2019-04-10T08:55:42.118Z,9.08
2019-04-10T08:56:41.208Z,9.03
2019-04-10T08:57:41.737Z,9.10
2019-04-10T08:58:41.314Z,8.99
2019-04-10T08:59:41.168Z,8.91
2019-04-10T09:00:41.159Z,9.13
2019-04-10T09:01:41.769Z,9.59
2019-04-10T09:02:42.244Z,9.25
2019-04-10T09:03:41.342Z,8.97
2019-04-10T09:04:41.337Z,9.21
2019-04-10T09:05:41.106Z,9.58
2019-04-10T09:06:41.820Z,10.26
2019-04-10T09:07:41.221Z,10.90
2019-04-10T09:08:42.125Z,10.97
2019-04-10T09:09:41.553Z,11.23
2019-04-10T09:10:41.056Z,11.04
2019-04-10T09:11:41.284Z,10.67
2019-04-10T09:12:41.185Z,10.51
2019-04-10T09:13:41.057Z,10.71
2019-04-10T09:14:41.314Z,10.30
2019-04-10T09:15:40.995Z,10.04
2019-04-10T09:16:40.989Z,9.80
2019-04-10T09:17:41.763Z,10.63
2019-04-10T09:18:41.242Z,11.43
2019-04-10T09:19:40.961Z,11.32
2019-04-10T09:20:40.939Z,11.18
2019-04-10T09:21:41.698Z,11.15
2019-04-10T09:22:57.925Z,11.10
2019-04-10T09:23:48.236Z,10.79
2019-04-10T09:24:42.502Z,10.74
2019-04-10T09:25:41.565Z,10.79
2019-04-10T09:26:40.880Z,10.89
2019-04-10T09:27:42.784Z,10.84
2019-04-10T09:28:40.852Z,10.69
2019-04-10T09:29:40.846Z,10.59
2019-04-10T09:30:40.926Z,10.67
2019-04-10T09:31:41.730Z,11.00
2019-04-10T09:32:40.813Z,11.18
2019-04-10T09:33:40.803Z,11.18
2019-04-10T09:34:40.789Z,10.64
2019-04-10T09:35:40.785Z,9.99
2019-04-10T09:36:41.728Z,9.94
2019-04-10T09:37:42.007Z,10.10
2019-04-10T09:38:41.057Z,9.84
2019-04-10T09:39:41.292Z,9.89
2019-04-10T09:40:40.725Z,9.86
2019-04-10T09:41:41.647Z,10.23
2019-04-10T09:42:41.775Z,10.57
2019-04-10T09:43:40.693Z,11.02
2019-04-10T09:44:40.675Z,11.19
2019-04-10T09:45:41.644Z,11.17
2019-04-10T09:46:40.887Z,11.33
2019-04-10T09:47:41.683Z,11.50
2019-04-10T09:48:40.654Z,11.99
2019-04-10T09:49:45.834Z,12.15
2019-04-10T09:50:41.885Z,12.09
2019-04-10T09:51:40.611Z,11.77
2019-04-10T09:52:40.758Z,11.02
2019-04-10T09:53:41.274Z,10.64
2019-04-10T09:54:40.566Z,10.33
2019-04-10T09:55:40.582Z,10.42
2019-04-10T09:56:40.583Z,10.64
2019-04-10T09:57:40.915Z,11.22
2019-04-10T09:58:40.637Z,11.52
2019-04-10T09:59:41.247Z,11.33
2019-04-10T10:00:40.503Z,11.59
2019-04-10T10:01:40.508Z,11.65
2019-04-10T10:02:40.518Z,10.99
2019-04-10T10:03:40.473Z,11.11
2019-04-10T10:04:40.461Z,10.64
2019-04-10T10:05:40.445Z,10.68
2019-04-10T10:06:40.441Z,10.71
2019-04-10T10:07:41.060Z,10.64
2019-04-10T10:08:41.558Z,10.60
2019-04-10T10:09:41.000Z,10.31
2019-04-10T10:10:41.542Z,10.30
2019-04-10T10:11:40.385Z,10.31
2019-04-10T10:12:40.782Z,10.42
2019-04-10T10:13:41.425Z,9.94
2019-04-10T10:14:40.358Z,10.01
2019-04-10T10:15:41.111Z,10.15
2019-04-10T10:16:40.331Z,10.01
2019-04-10T10:17:41.208Z,9.86
2019-04-10T10:18:41.469Z,9.59
2019-04-10T10:19:40.718Z,9.21
2019-04-10T10:20:40.285Z,8.94
2019-04-10T10:21:40.780Z,8.64
2019-04-10T10:22:41.146Z,8.69
2019-04-10T10:23:40.256Z,8.74
2019-04-10T10:24:40.475Z,8.85
2019-04-10T10:25:40.232Z,9.02
2019-04-10T10:26:43.232Z,9.10
2019-04-10T10:27:40.772Z,9.23
2019-04-10T10:28:40.198Z,9.26
2019-04-10T10:29:40.213Z,9.58
2019-04-10T10:30:40.177Z,10.05
2019-04-10T10:31:40.325Z,10.56
2019-04-10T10:32:42.137Z,10.76
2019-04-10T10:33:40.139Z,10.82
2019-04-10T10:34:40.803Z,10.23
2019-04-10T10:35:41.138Z,9.87
2019-04-10T10:36:43.433Z,9.56
2019-04-10T10:37:41.112Z,9.39
2019-04-10T10:38:40.114Z,9.46
2019-04-10T10:39:41.142Z,9.41
2019-04-10T10:40:40.071Z,9.32
2019-04-10T10:41:40.540Z,9.34
2019-04-10T10:42:41.378Z,9.56
2019-04-10T10:43:40.446Z,9.87
2019-04-10T10:44:40.448Z,9.98
2019-04-10T10:45:40.022Z,10.23
2019-04-10T10:46:39.995Z,10.41
2019-04-10T10:47:40.509Z,10.42
2019-04-10T10:48:40.027Z,10.16
2019-04-10T10:49:40.226Z,10.33
2019-04-10T10:50:39.954Z,10.38
2019-04-10T10:51:39.958Z,10.38
2019-04-10T10:52:39.949Z,10.71
2019-04-10T10:53:40.748Z,10.56
2019-04-10T10:54:41.017Z,10.05
2019-04-10T10:55:40.023Z,10.23
2019-04-10T10:56:39.904Z,10.76
2019-04-10T10:57:39.873Z,10.87
2019-04-10T10:58:39.864Z,10.76
2019-04-10T10:59:39.876Z,10.59
2019-04-10T11:00:41.045Z,10.60
2019-04-10T11:01:40.015Z,10.60
2019-04-10T11:02:39.823Z,10.81
2019-04-10T11:03:40.493Z,11.07
2019-04-10T11:04:39.911Z,11.51
2019-04-10T11:05:39.793Z,11.45
2019-04-10T11:06:51.559Z,11.75
2019-04-10T11:07:40.771Z,12.00
2019-04-10T11:08:39.910Z,12.43
2019-04-10T11:09:40.211Z,11.52
2019-04-10T11:10:41.071Z,11.57
2019-04-10T11:11:40.906Z,11.95
2019-04-10T11:12:39.724Z,12.36
2019-04-10T11:13:39.703Z,12.06
2019-04-10T11:14:39.690Z,11.80
2019-04-10T11:15:42.742Z,11.68
2019-04-10T11:16:41.085Z,11.41
2019-04-10T11:17:40.433Z,11.37
2019-04-10T11:18:40.360Z,11.69
2019-04-10T11:19:39.631Z,12.06
2019-04-10T11:20:39.642Z,12.13
2019-04-10T11:21:40.496Z,11.66
2019-04-10T11:22:39.867Z,11.26
2019-04-10T11:23:39.591Z,10.53
2019-04-10T11:24:40.889Z,9.99
2019-04-10T11:25:40.446Z,9.97
2019-04-10T11:26:40.029Z,9.74
2019-04-10T11:27:39.553Z,9.74
2019-04-10T11:28:39.549Z,9.91
2019-04-10T11:29:39.522Z,9.79
2019-04-10T11:30:41.150Z,9.86
2019-04-10T11:31:39.696Z,9.83
2019-04-10T11:32:39.493Z,9.99
2019-04-10T11:33:39.839Z,10.31
2019-04-10T11:34:40.714Z,10.16
2019-04-10T11:35:39.719Z,9.84
2019-04-10T11:36:40.045Z,9.31
2019-04-10T11:37:44.460Z,9.29
2019-04-10T11:38:42.146Z,9.21
2019-04-10T11:39:43.289Z,9.50
2019-04-10T11:40:41.417Z,9.97
2019-04-10T11:41:39.892Z,10.16
2019-04-10T11:42:40.174Z,10.56
2019-04-10T11:43:39.379Z,10.49
2019-04-10T11:44:41.717Z,10.57
2019-04-10T11:45:44.103Z,10.23
2019-04-10T11:46:41.885Z,9.79
2019-04-10T11:47:39.330Z,9.61
2019-04-10T11:48:41.856Z,9.44
2019-04-10T11:49:44.309Z,9.40
2019-04-10T11:50:39.296Z,9.61
2019-04-10T11:51:39.347Z,9.73
2019-04-10T11:52:45.252Z,9.59
2019-04-10T11:53:44.478Z,9.32
2019-04-10T11:54:41.539Z,9.58
2019-04-10T11:55:46.030Z,10.13
2019-04-10T11:56:40.231Z,10.42
2019-04-10T11:57:39.218Z,10.54
2019-04-10T11:58:48.898Z,10.59
2019-04-10T11:59:41.055Z,10.59
2019-04-10T12:00:47.639Z,10.48
2019-04-10T12:01:40.179Z,10.42
2019-04-10T12:02:40.265Z,10.67
2019-04-10T12:03:44.231Z,10.86
2019-04-10T12:04:50.684Z,11.40
2019-04-10T12:05:41.296Z,11.78
2019-04-10T12:06:40.361Z,12.07
2019-04-10T12:09:03.680Z,11.35
2019-04-10T12:11:40.377Z,12.22
2019-04-10T12:12:39.050Z,12.20
2019-04-10T12:13:39.041Z,11.97
2019-04-10T12:14:39.626Z,11.54
2019-04-10T12:15:39.035Z,11.51
2019-04-10T12:16:39.058Z,12.06
2019-04-10T12:17:40.153Z,12.49
2019-04-10T12:18:38.987Z,12.28
2019-04-10T12:19:38.976Z,11.30
2019-04-10T12:20:38.968Z,11.60
2019-04-10T12:21:39.961Z,12.29
2019-04-10T12:22:38.945Z,12.21
2019-04-10T12:23:38.953Z,11.81
2019-04-10T12:24:38.929Z,12.36
2019-04-10T12:25:38.909Z,12.35
2019-04-10T12:26:39.941Z,11.73
2019-04-10T12:27:39.099Z,11.36
2019-04-10T12:28:38.885Z,10.89
2019-04-10T12:29:38.866Z,10.96
2019-04-10T12:30:39.533Z,10.44
2019-04-10T12:31:39.748Z,9.77
2019-04-10T12:32:39.045Z,9.76
2019-04-10T12:33:38.823Z,9.76
2019-04-10T12:34:38.819Z,9.55
2019-04-10T12:35:38.803Z,9.58
2019-04-10T12:36:38.811Z,9.23
2019-04-10T12:37:39.170Z,9.89
2019-04-10T12:38:39.523Z,10.46
2019-04-10T12:39:39.133Z,10.40
2019-04-10T12:40:40.430Z,10.09
2019-04-10T12:41:39.441Z,9.89
2019-04-10T12:42:38.810Z,9.62
2019-04-10T12:43:38.710Z,9.47
2019-04-10T12:44:39.983Z,9.54
2019-04-10T12:45:38.695Z,9.68
2019-04-10T12:46:39.453Z,9.79
2019-04-10T12:47:39.738Z,10.09
2019-04-10T12:48:38.847Z,10.31
2019-04-10T12:49:39.379Z,10.20
2019-04-10T12:50:39.115Z,10.54
2019-04-10T12:51:38.628Z,11.19
2019-04-10T12:52:38.805Z,11.48
2019-04-10T12:53:38.603Z,11.47
2019-04-10T12:54:40.475Z,11.66
2019-04-10T12:55:38.876Z,11.80
2019-04-10T12:56:38.576Z,11.97
2019-04-10T12:57:39.149Z,11.97
2019-04-10T12:58:39.274Z,11.57
2019-04-10T12:59:39.444Z,11.44
2019-04-10T13:00:38.532Z,11.36
2019-04-10T13:01:38.620Z,11.35
2019-04-10T13:02:38.739Z,11.15
2019-04-10T13:03:39.010Z,11.02
2019-04-10T13:04:38.674Z,11.40
2019-04-10T13:05:38.474Z,11.78
2019-04-10T13:06:38.469Z,12.09
2019-04-10T13:07:38.447Z,12.58
2019-04-10T13:08:54.664Z,13.05
2019-04-10T13:09:40.162Z,13.46
2019-04-10T13:10:38.417Z,13.75
2019-04-10T13:11:38.512Z,13.87
2019-04-10T13:12:39.669Z,13.42
2019-04-10T13:13:38.381Z,12.90
2019-04-10T13:14:39.774Z,12.73
2019-04-10T13:15:39.308Z,12.62
2019-04-10T13:16:38.466Z,12.61